Bookmark and Share
Track history (hours):
 

Amazondiep

Last reported at 2014-Apr-10 15:10 UTC. Time now 2014-Apr-19 09:39 UTC.
Position N 50°13' W 001°38'.
Warning: this ship's position is 8 days out of date.

Length 89 m; draft 4.3 m.

Type: Cargo ship. MMSI: 210974000.

NotesDate/timePositionNaut miles runAvg speedWind from/ knotsBaromVisibWave heightAir tempDewpointWater temp
2014-Apr-10 15:10N 50°13' W 001°38'5 8.3
2014-Apr-10 14:33N 50°15' W 001°30'9 9.3
2014-Apr-10 13:33N 50°17' W 001°16'1110.8
2014-Apr-10 12:32N 50°20' W 000°60'2411.0
2014-Apr-10 10:22N 50°26' W 000°23'21 9.9
2014-Apr-10 08:17N 50°33' E 000°07'7 9.2
2014-Apr-10 07:33N 50°35' E 000°18'9 8.7
2014-Apr-10 06:33N 50°37' E 000°31'8 8.4
2014-Apr-10 05:33N 50°41' E 000°42'9 8.7
2014-Apr-10 04:33N 50°46' E 000°54'2110.4
2014-Apr-10 02:33N 50°59' E 001°19'1111.0
2014-Apr-10 01:33N 51°06' E 001°32'1010.2
2014-Apr-10 00:33N 51°13' E 001°45'9 9.5
2014-Apr-09 23:33N 51°21' E 001°52'9 8.9
2014-Apr-09 22:33N 51°29' E 001°59'402 8.8
2014-Apr-08 01:06N 57°06' E 008°14'72 8.4
2014-Apr-07 16:33N 57°44' E 010°08'10 9.4
2014-Apr-07 15:28N 57°49' E 010°25'8 9.0
2014-Apr-07 14:33N 57°49' E 010°40'9 9.0
2014-Apr-07 13:33N 57°45' E 010°55'1010.3
2014-Apr-07 12:33N 57°38' E 011°09'10 9.9
2014-Apr-07 11:33N 57°31' E 011°22'9 9.3
2014-Apr-07 10:33N 57°22' E 011°30'1110.5
2014-Apr-07 09:33N 57°13' E 011°37'1310.4
2014-Apr-07 08:19N 57°01' E 011°45'810.9
2014-Apr-07 07:33N 56°53' E 011°50'24 9.8
2014-Apr-07 05:09N 56°30' E 012°01'6 9.5
2014-Apr-07 04:33N 56°24' E 012°03'9 8.6
2014-Apr-07 03:33N 56°17' E 012°10'9 9.2
2014-Apr-07 02:33N 56°11' E 012°23'1010.4
2014-Apr-07 01:33N 56°05' E 012°38'10 9.9
2014-Apr-07 00:33N 55°55' E 012°44'10 9.6
2014-Apr-06 23:33N 55°46' E 012°42'10 9.7
2014-Apr-06 22:33N 55°36' E 012°42'9 9.3
2014-Apr-06 21:33N 55°27' E 012°42'9 9.2
2014-Apr-06 20:33N 55°18' E 012°44'10 9.9
2014-Apr-06 19:33N 55°16' E 013°01'1010.0
2014-Apr-06 18:33N 55°15' E 013°18'1510.1
2014-Apr-06 17:06N 55°14' E 013°44'610.3
2014-Apr-06 16:32N 55°14' E 013°54'1010.2
2014-Apr-06 15:33N 55°14' E 014°12'9 9.4
2014-Apr-06 14:33N 55°20' E 014°25'1010.1
2014-Apr-06 13:33N 55°27' E 014°37'1010.1
2014-Apr-06 12:33N 55°32' E 014°52'10 9.7
2014-Apr-06 11:31N 55°37' E 015°08'40 9.7
2014-Apr-06 07:24N 55°57' E 016°10'10 9.8
2014-Apr-06 06:23N 56°02' E 016°25'  

Dump ship's entire track history

sailing weather and tide predictions

Amazondiep — 5BCT2 — position and weather